Time;durP1;ratioP1;P1;durP2;ratioP2;P2;SDS_P1;SDS_P2;PMS_P1;PMS_P2;Temp;Humidity;BMP_temperature;BMP_pressure;BME280_temperature;BME280_humidity;BME280_pressure;Samples;Min_cycle;Max_cycle;Signal;HPM_P1;HPM_P2
2022/03/08 00:01:00;;;;;;;91.10;45.90;;;;;;;;;;5037353;28;20029;-72
2022/03/08 00:03:27;;;;;;;89.35;42.72;;;;;;;;;;5033985;28;20726;-72
2022/03/08 00:05:54;;;;;;;83.03;43.50;;;;;;;;;;5041358;28;20021;-73
2022/03/08 00:08:20;;;;;;;86.18;45.00;;;;;;;;;;5027851;28;20415;-72
2022/03/08 00:10:46;;;;;;;84.03;43.80;;;;;;;;;;5047819;28;20451;-72
2022/03/08 00:13:12;;;;;;;79.60;40.33;;;;;;;;;;5047458;28;20079;-72
2022/03/08 00:15:38;;;;;;;78.50;41.05;;;;;;;;;;5042844;28;20071;-72
2022/03/08 00:18:05;;;;;;;78.28;41.60;;;;;;;;;;5039266;28;20682;-72
2022/03/08 00:20:31;;;;;;;69.72;37.65;;;;;;;;;;5041386;28;20029;-72
2022/03/08 00:22:58;;;;;;;67.32;34.33;;;;;;;;;;5038309;28;20427;-72
2022/03/08 00:25:24;;;;;;;66.20;36.65;;;;;;;;;;5044294;28;20037;-72
2022/03/08 00:27:50;;;;;;;65.40;35.38;;;;;;;;;;5036021;28;20062;-72
2022/03/08 00:30:18;;;;;;;64.70;34.67;;;;;;;;;;5033821;28;20112;-72
2022/03/08 00:32:44;;;;;;;62.28;34.83;;;;;;;;;;5041858;28;20047;-72
2022/03/08 00:35:10;;;;;;;62.65;32.90;;;;;;;;;;5042718;28;20025;-72
2022/03/08 00:37:37;;;;;;;58.40;33.33;;;;;;;;;;5041531;28;20595;-72
2022/03/08 00:40:04;;;;;;;59.63;32.15;;;;;;;;;;5039346;28;20029;-72
2022/03/08 00:42:30;;;;;;;60.28;33.95;;;;;;;;;;5043410;28;20115;-72
2022/03/08 00:44:56;;;;;;;55.15;32.22;;;;;;;;;;5036220;28;20057;-72
2022/03/08 00:47:22;;;;;;;50.13;30.15;;;;;;;;;;5033901;28;20487;-72
2022/03/08 00:49:48;;;;;;;52.22;31.00;;;;;;;;;;5031648;28;20025;-72
2022/03/08 00:52:15;;;;;;;50.80;29.15;;;;;;;;;;5039828;28;20506;-72
2022/03/08 00:54:41;;;;;;;53.53;29.45;;;;;;;;;;5045407;28;20391;-72
2022/03/08 00:57:07;;;;;;;51.88;28.40;;;;;;;;;;5046539;28;20043;-72
2022/03/08 00:59:33;;;;;;;50.53;27.70;;;;;;;;;;5031240;28;20357;-72
2022/03/08 01:01:59;;;;;;;53.78;28.83;;;;;;;;;;5045620;28;20048;-72
2022/03/08 01:04:26;;;;;;;48.00;27.60;;;;;;;;;;5041479;28;20572;-72
2022/03/08 01:06:52;;;;;;;42.60;25.13;;;;;;;;;;5053588;28;20041;-72
2022/03/08 01:09:18;;;;;;;44.70;25.73;;;;;;;;;;5030507;28;20541;-72
2022/03/08 01:11:44;;;;;;;50.03;28.27;;;;;;;;;;5047579;28;20040;-72
2022/03/08 01:14:10;;;;;;;47.33;27.25;;;;;;;;;;5038527;28;20029;-72
2022/03/08 01:16:37;;;;;;;44.95;25.42;;;;;;;;;;5029122;28;20044;-72
2022/03/08 01:19:04;;;;;;;47.65;26.50;;;;;;;;;;5037296;28;20025;-72
2022/03/08 01:21:30;;;;;;;40.85;25.08;;;;;;;;;;5044016;28;20036;-72
2022/03/08 01:23:56;;;;;;;47.92;25.45;;;;;;;;;;5033651;28;20029;-72
2022/03/08 01:26:22;;;;;;;42.60;24.27;;;;;;;;;;5047544;28;20032;-72
2022/03/08 01:28:48;;;;;;;41.13;22.67;;;;;;;;;;5033648;28;20104;-72
2022/03/08 01:31:14;;;;;;;40.08;23.40;;;;;;;;;;5047111;28;20041;-72
2022/03/08 01:33:40;;;;;;;43.83;24.75;;;;;;;;;;5041338;28;20033;-72
2022/03/08 01:36:07;;;;;;;45.17;24.15;;;;;;;;;;5035837;28;20059;-71
2022/03/08 01:38:33;;;;;;;47.92;24.77;;;;;;;;;;5036758;28;20021;-72
2022/03/08 01:40:59;;;;;;;41.92;25.10;;;;;;;;;;5038570;28;20094;-72
2022/03/08 01:43:25;;;;;;;43.47;25.60;;;;;;;;;;5039120;28;20044;-72
2022/03/08 01:45:51;;;;;;;39.85;23.30;;;;;;;;;;5036487;28;20033;-72
2022/03/08 01:48:17;;;;;;;48.95;25.63;;;;;;;;;;5044719;28;20037;-72
2022/03/08 01:50:43;;;;;;;43.58;25.05;;;;;;;;;;5034550;28;20037;-71
2022/03/08 01:53:09;;;;;;;39.20;23.85;;;;;;;;;;5047768;28;20051;-72
2022/03/08 01:55:35;;;;;;;41.53;24.23;;;;;;;;;;5042873;28;20041;-72
2022/03/08 01:58:01;;;;;;;39.88;23.50;;;;;;;;;;5043614;28;20040;-72
2022/03/08 02:00:29;;;;;;;43.22;22.60;;;;;;;;;;5040379;28;20033;-71
2022/03/08 02:02:55;;;;;;;37.83;21.02;;;;;;;;;;5035191;28;20112;-72
2022/03/08 02:05:22;;;;;;;37.95;22.90;;;;;;;;;;5036298;28;20201;-71
2022/03/08 02:07:48;;;;;;;36.70;21.52;;;;;;;;;;5033849;28;20044;-72
2022/03/08 02:10:14;;;;;;;41.17;22.10;;;;;;;;;;5041115;28;20443;-71
2022/03/08 02:12:40;;;;;;;41.53;22.85;;;;;;;;;;5037211;28;20065;-72
2022/03/08 02:15:12;;;;;;;41.03;23.08;;;;;;;;;;5041161;28;20033;-71
2022/03/08 02:17:38;;;;;;;38.00;22.98;;;;;;;;;;5032907;28;20037;-72
2022/03/08 02:20:04;;;;;;;45.95;27.08;;;;;;;;;;5041089;28;20027;-72
2022/03/08 02:22:31;;;;;;;43.40;25.05;;;;;;;;;;5035978;28;20141;-71
2022/03/08 02:24:57;;;;;;;43.28;24.83;;;;;;;;;;5036157;28;20025;-72
2022/03/08 02:27:23;;;;;;;39.65;23.75;;;;;;;;;;5034635;28;20034;-72
2022/03/08 02:29:49;;;;;;;41.50;23.58;;;;;;;;;;5043670;28;20068;-72
2022/03/08 02:32:16;;;;;;;43.13;24.67;;;;;;;;;;5044397;28;20037;-72
2022/03/08 02:34:42;;;;;;;41.08;23.33;;;;;;;;;;5036669;28;20049;-71
2022/03/08 02:37:09;;;;;;;42.47;24.60;;;;;;;;;;5046962;28;20033;-71
2022/03/08 02:39:35;;;;;;;42.80;23.90;;;;;;;;;;5041464;28;20036;-72
2022/03/08 02:42:01;;;;;;;44.28;24.77;;;;;;;;;;5036278;28;20116;-72
2022/03/08 02:44:28;;;;;;;41.00;23.58;;;;;;;;;;5028355;28;20538;-71
2022/03/08 02:46:54;;;;;;;44.00;24.90;;;;;;;;;;5030203;28;20083;-72
2022/03/08 02:49:20;;;;;;;42.95;23.30;;;;;;;;;;5032114;28;20094;-71
2022/03/08 02:51:46;;;;;;;36.80;22.08;;;;;;;;;;5043114;28;20499;-71
2022/03/08 02:54:12;;;;;;;41.78;22.23;;;;;;;;;;5032761;28;20109;-72
2022/03/08 02:56:38;;;;;;;38.53;22.52;;;;;;;;;;5046710;28;20037;-72
2022/03/08 02:59:04;;;;;;;36.83;22.25;;;;;;;;;;5040313;28;20108;-71
2022/03/08 03:01:30;;;;;;;43.33;25.52;;;;;;;;;;5039041;28;20037;-71
2022/03/08 03:03:57;;;;;;;41.45;23.48;;;;;;;;;;5040511;28;20033;-71
2022/03/08 03:06:23;;;;;;;41.33;24.55;;;;;;;;;;5046769;28;21095;-71
2022/03/08 03:08:49;;;;;;;44.75;25.95;;;;;;;;;;5032583;28;20037;-71
2022/03/08 03:11:15;;;;;;;39.72;23.73;;;;;;;;;;5039198;28;20547;-72
2022/03/08 03:13:42;;;;;;;43.83;25.58;;;;;;;;;;5039974;28;20062;-72
2022/03/08 03:16:08;;;;;;;49.72;23.65;;;;;;;;;;5038747;28;20033;-71
2022/03/08 03:18:34;;;;;;;41.13;23.40;;;;;;;;;;5038592;28;20021;-71
2022/03/08 03:21:00;;;;;;;39.95;22.75;;;;;;;;;;5037293;28;20416;-71
2022/03/08 03:23:26;;;;;;;38.55;22.05;;;;;;;;;;5028818;28;20061;-71
2022/03/08 03:25:52;;;;;;;39.88;21.08;;;;;;;;;;5044069;28;20095;-72
2022/03/08 03:28:18;;;;;;;38.17;21.63;;;;;;;;;;5032155;28;20446;-71
2022/03/08 03:30:44;;;;;;;41.70;23.55;;;;;;;;;;5041411;28;20032;-71
2022/03/08 03:33:10;;;;;;;44.15;23.88;;;;;;;;;;5034950;28;20039;-71
2022/03/08 03:35:36;;;;;;;43.60;24.17;;;;;;;;;;5037467;28;20384;-71
2022/03/08 03:38:02;;;;;;;40.78;22.65;;;;;;;;;;5030044;28;20037;-71
2022/03/08 03:40:28;;;;;;;47.25;24.27;;;;;;;;;;5034696;28;20760;-72
2022/03/08 03:42:54;;;;;;;42.40;24.50;;;;;;;;;;5035049;28;20033;-71
2022/03/08 03:45:20;;;;;;;45.90;27.58;;;;;;;;;;5036165;28;20361;-72
2022/03/08 03:47:46;;;;;;;50.22;27.88;;;;;;;;;;5034250;28;20114;-71
2022/03/08 03:50:12;;;;;;;56.72;29.65;;;;;;;;;;5039758;28;20113;-72
2022/03/08 03:52:38;;;;;;;47.78;27.25;;;;;;;;;;5034611;28;20036;-71
2022/03/08 03:55:05;;;;;;;53.22;29.05;;;;;;;;;;5036216;28;20494;-71
2022/03/08 03:57:31;;;;;;;46.65;27.65;;;;;;;;;;5035471;28;20069;-71
2022/03/08 03:59:57;;;;;;;48.72;26.95;;;;;;;;;;5047324;28;20032;-71
2022/03/08 04:02:23;;;;;;;48.38;25.58;;;;;;;;;;5038555;28;20041;-71
2022/03/08 04:04:49;;;;;;;50.30;27.80;;;;;;;;;;5036415;28;20037;-71
2022/03/08 04:07:15;;;;;;;44.10;24.70;;;;;;;;;;5038146;28;20033;-71
2022/03/08 04:09:41;;;;;;;46.47;26.90;;;;;;;;;;5045908;28;20573;-71
2022/03/08 04:12:07;;;;;;;47.00;25.63;;;;;;;;;;5039117;28;20041;-71
2022/03/08 04:14:33;;;;;;;43.50;25.73;;;;;;;;;;5047454;28;20025;-72
2022/03/08 04:17:00;;;;;;;56.53;30.85;;;;;;;;;;5038593;28;20542;-71
2022/03/08 04:19:26;;;;;;;50.08;26.67;;;;;;;;;;5034636;28;20021;-71
2022/03/08 04:21:52;;;;;;;51.28;30.10;;;;;;;;;;5048428;28;20053;-71
2022/03/08 04:24:18;;;;;;;49.38;29.15;;;;;;;;;;5036547;28;20112;-71
2022/03/08 04:26:44;;;;;;;49.55;28.67;;;;;;;;;;5037822;28;20037;-71
2022/03/08 04:29:10;;;;;;;55.28;28.30;;;;;;;;;;5037840;28;20048;-71
2022/03/08 04:31:36;;;;;;;48.17;26.55;;;;;;;;;;5047239;28;20037;-71
2022/03/08 04:34:03;;;;;;;49.88;27.95;;;;;;;;;;5041916;28;20091;-71
2022/03/08 04:36:29;;;;;;;50.63;29.27;;;;;;;;;;5044082;28;20037;-71
2022/03/08 04:38:55;;;;;;;53.15;29.52;;;;;;;;;;5037323;28;20472;-71
2022/03/08 04:41:21;;;;;;;49.53;30.92;;;;;;;;;;5046888;28;20058;-72
2022/03/08 04:43:47;;;;;;;46.45;25.98;;;;;;;;;;5038478;28;20033;-71
2022/03/08 04:46:13;;;;;;;48.35;28.33;;;;;;;;;;5027516;28;20115;-71
2022/03/08 04:48:39;;;;;;;49.15;27.13;;;;;;;;;;5033170;28;20069;-71
2022/03/08 04:51:05;;;;;;;55.25;28.70;;;;;;;;;;5037174;28;20103;-71
2022/03/08 04:53:31;;;;;;;52.63;28.52;;;;;;;;;;5034748;28;20037;-71
2022/03/08 04:55:57;;;;;;;49.17;28.52;;;;;;;;;;5036836;28;20068;-71
2022/03/08 04:58:23;;;;;;;47.75;27.10;;;;;;;;;;5032892;28;20068;-71
2022/03/08 05:00:49;;;;;;;48.10;27.40;;;;;;;;;;5030526;28;20055;-71
2022/03/08 05:03:15;;;;;;;53.10;29.33;;;;;;;;;;5039928;28;20078;-71
2022/03/08 05:05:41;;;;;;;60.60;31.00;;;;;;;;;;5041442;28;20535;-71
2022/03/08 05:08:07;;;;;;;57.80;31.48;;;;;;;;;;5041342;28;20102;-71
2022/03/08 05:10:33;;;;;;;51.45;28.52;;;;;;;;;;5031480;28;20033;-71
2022/03/08 05:13:00;;;;;;;60.90;32.88;;;;;;;;;;5041372;28;20041;-72
2022/03/08 05:15:26;;;;;;;55.63;29.88;;;;;;;;;;5044146;28;20025;-71
2022/03/08 05:17:52;;;;;;;60.65;34.10;;;;;;;;;;5035868;28;20044;-71
2022/03/08 05:20:18;;;;;;;60.90;31.20;;;;;;;;;;5037558;28;20025;-71
2022/03/08 05:22:44;;;;;;;54.65;31.90;;;;;;;;;;5039170;28;20960;-71
2022/03/08 05:25:10;;;;;;;59.08;31.77;;;;;;;;;;5049571;28;20032;-71
2022/03/08 05:27:37;;;;;;;70.60;38.20;;;;;;;;;;5029627;28;20037;-71
2022/03/08 05:30:04;;;;;;;65.90;34.42;;;;;;;;;;5036029;28;20073;-72
2022/03/08 05:32:30;;;;;;;58.13;34.65;;;;;;;;;;5037085;28;20044;-71
2022/03/08 05:34:56;;;;;;;63.03;36.13;;;;;;;;;;5039665;28;20029;-71
2022/03/08 05:37:22;;;;;;;59.13;33.78;;;;;;;;;;5036206;28;20029;-71
2022/03/08 05:39:48;;;;;;;63.30;35.92;;;;;;;;;;5035819;28;20043;-71
2022/03/08 05:42:14;;;;;;;61.35;32.78;;;;;;;;;;5038535;28;20040;-72
2022/03/08 05:44:40;;;;;;;61.53;33.13;;;;;;;;;;5033635;28;20041;-71
2022/03/08 05:47:06;;;;;;;58.25;32.70;;;;;;;;;;5035014;28;20033;-71
2022/03/08 05:49:32;;;;;;;62.42;33.75;;;;;;;;;;5036609;28;20137;-71
2022/03/08 05:51:58;;;;;;;50.35;28.58;;;;;;;;;;5038250;28;20081;-71
2022/03/08 05:54:25;;;;;;;61.45;30.98;;;;;;;;;;5037560;28;20121;-71
2022/03/08 05:56:51;;;;;;;61.25;32.08;;;;;;;;;;5041065;28;20526;-71
2022/03/08 05:59:17;;;;;;;59.55;31.30;;;;;;;;;;5039683;28;20104;-71
2022/03/08 06:01:43;;;;;;;54.65;32.38;;;;;;;;;;5045434;28;20108;-71
2022/03/08 06:04:09;;;;;;;59.22;32.38;;;;;;;;;;5042890;28;20033;-71
2022/03/08 06:06:35;;;;;;;63.10;35.38;;;;;;;;;;5046802;28;20033;-71
2022/03/08 06:09:01;;;;;;;57.55;32.60;;;;;;;;;;5033891;28;20061;-71
2022/03/08 06:11:27;;;;;;;62.55;34.00;;;;;;;;;;5027388;28;20040;-72
2022/03/08 06:13:53;;;;;;;63.70;36.88;;;;;;;;;;5040640;28;20029;-71
2022/03/08 06:16:19;;;;;;;65.70;35.25;;;;;;;;;;5037939;28;20071;-71
2022/03/08 06:18:45;;;;;;;61.80;33.97;;;;;;;;;;5036848;28;20033;-71
2022/03/08 06:21:11;;;;;;;75.35;37.17;;;;;;;;;;5034313;28;20091;-71
2022/03/08 06:23:37;;;;;;;65.13;33.70;;;;;;;;;;5034327;28;20087;-72
2022/03/08 06:26:03;;;;;;;69.22;34.42;;;;;;;;;;5040692;28;20056;-71
2022/03/08 06:28:29;;;;;;;65.13;35.95;;;;;;;;;;5032603;28;20892;-71
2022/03/08 06:30:55;;;;;;;68.68;35.60;;;;;;;;;;5040880;28;20033;-71
2022/03/08 06:33:21;;;;;;;67.07;36.10;;;;;;;;;;5039193;28;20033;-71
2022/03/08 06:35:47;;;;;;;66.03;35.30;;;;;;;;;;5035542;28;20501;-71
2022/03/08 06:38:13;;;;;;;67.10;34.25;;;;;;;;;;5045974;28;20045;-71
2022/03/08 06:40:40;;;;;;;78.88;41.22;;;;;;;;;;5041491;28;20037;-71
2022/03/08 06:43:06;;;;;;;66.07;36.38;;;;;;;;;;5037682;28;20039;-71
2022/03/08 06:45:32;;;;;;;59.55;32.33;;;;;;;;;;5024216;28;20033;-71
2022/03/08 06:47:58;;;;;;;68.90;37.97;;;;;;;;;;5032496;28;20376;-71
2022/03/08 06:50:24;;;;;;;66.80;36.65;;;;;;;;;;5033703;28;20087;-71
2022/03/08 06:52:50;;;;;;;69.18;37.63;;;;;;;;;;5037218;28;20048;-71
2022/03/08 06:55:16;;;;;;;70.63;38.95;;;;;;;;;;5037503;28;20047;-71
2022/03/08 06:57:42;;;;;;;76.43;38.20;;;;;;;;;;5034446;28;20039;-71
2022/03/08 07:00:08;;;;;;;72.40;37.67;;;;;;;;;;5037320;28;20051;-71
2022/03/08 07:02:35;;;;;;;68.65;38.90;;;;;;;;;;5039411;28;20055;-71
2022/03/08 07:05:02;;;;;;;87.55;49.03;;;;;;;;;;5037277;28;20053;-71
2022/03/08 07:07:28;;;;;;;67.43;39.35;;;;;;;;;;5038047;28;20110;-71
2022/03/08 07:09:54;;;;;;;80.95;43.50;;;;;;;;;;5043221;28;20029;-71
2022/03/08 07:12:20;;;;;;;79.68;43.65;;;;;;;;;;5036354;28;20056;-71
2022/03/08 07:14:46;;;;;;;77.65;39.72;;;;;;;;;;5035106;28;20793;-71
2022/03/08 07:17:13;;;;;;;85.75;43.90;;;;;;;;;;5035586;28;20045;-71
2022/03/08 07:19:40;;;;;;;83.97;41.25;;;;;;;;;;5038261;28;20033;-71
2022/03/08 07:22:06;;;;;;;79.78;44.50;;;;;;;;;;5040721;28;20514;-71
2022/03/08 07:24:32;;;;;;;95.97;47.03;;;;;;;;;;5033272;28;20116;-71
2022/03/08 07:26:58;;;;;;;95.65;46.60;;;;;;;;;;5033785;28;20545;-71
2022/03/08 07:29:24;;;;;;;68.53;39.72;;;;;;;;;;5037116;28;20500;-71
2022/03/08 07:31:50;;;;;;;71.47;39.05;;;;;;;;;;5033357;28;20037;-71
2022/03/08 07:34:16;;;;;;;65.78;38.45;;;;;;;;;;5041467;28;20029;-71
2022/03/08 07:36:42;;;;;;;67.18;39.30;;;;;;;;;;5035196;28;20044;-71
2022/03/08 07:39:09;;;;;;;71.20;38.60;;;;;;;;;;5047878;28;20123;-71
2022/03/08 07:41:35;;;;;;;73.05;42.92;;;;;;;;;;5051158;28;20041;-71
2022/03/08 07:44:03;;;;;;;68.95;41.95;;;;;;;;;;5038165;28;20624;-71
2022/03/08 07:46:29;;;;;;;74.97;44.95;;;;;;;;;;5044879;28;20045;-71
2022/03/08 07:48:55;;;;;;;77.25;43.35;;;;;;;;;;5044034;28;20074;-71
2022/03/08 07:51:21;;;;;;;75.18;40.90;;;;;;;;;;5042776;28;20041;-71
2022/03/08 07:53:47;;;;;;;79.47;44.00;;;;;;;;;;5043088;28;20086;-70
2022/03/08 07:56:13;;;;;;;84.55;45.22;;;;;;;;;;5041229;28;20422;-71
2022/03/08 07:58:40;;;;;;;70.72;41.95;;;;;;;;;;5044045;28;20044;-71
2022/03/08 08:01:06;;;;;;;71.88;41.83;;;;;;;;;;5044198;28;20112;-70
2022/03/08 08:03:32;;;;;;;70.13;41.75;;;;;;;;;;5039592;28;20025;-71
2022/03/08 08:05:58;;;;;;;72.60;40.00;;;;;;;;;;5036094;28;20060;-71
2022/03/08 08:08:24;;;;;;;67.72;39.53;;;;;;;;;;5038129;28;20091;-70
2022/03/08 08:10:50;;;;;;;62.58;38.80;;;;;;;;;;5043774;28;20128;-71
2022/03/08 08:13:16;;;;;;;71.68;41.05;;;;;;;;;;5044934;28;20395;-71
2022/03/08 08:15:42;;;;;;;73.20;42.97;;;;;;;;;;5047108;28;20078;-71
2022/03/08 08:18:08;;;;;;;74.18;41.20;;;;;;;;;;5042052;28;20037;-71
2022/03/08 08:20:34;;;;;;;68.38;40.65;;;;;;;;;;5038147;28;20456;-71
2022/03/08 08:23:00;;;;;;;77.13;43.65;;;;;;;;;;5038872;28;20065;-71
2022/03/08 08:25:26;;;;;;;74.43;43.70;;;;;;;;;;5043384;28;20361;-71
2022/03/08 08:27:52;;;;;;;77.97;39.72;;;;;;;;;;5043511;28;20074;-71
2022/03/08 08:30:19;;;;;;;72.88;42.25;;;;;;;;;;5038643;28;20037;-70
2022/03/08 08:32:45;;;;;;;63.20;40.85;;;;;;;;;;5043600;28;20058;-71
2022/03/08 08:35:11;;;;;;;65.70;39.63;;;;;;;;;;5037696;28;20030;-71
2022/03/08 08:37:37;;;;;;;62.47;39.25;;;;;;;;;;5042199;28;20060;-71
2022/03/08 08:40:04;;;;;;;61.33;36.95;;;;;;;;;;5035512;28;20079;-71
2022/03/08 08:42:30;;;;;;;62.45;38.50;;;;;;;;;;5042610;28;21909;-71
2022/03/08 08:44:56;;;;;;;59.92;36.38;;;;;;;;;;5049448;28;20533;-71
2022/03/08 08:47:22;;;;;;;57.58;35.00;;;;;;;;;;5044710;28;20032;-71
2022/03/08 08:49:48;;;;;;;59.28;37.90;;;;;;;;;;5039272;28;20495;-70
2022/03/08 08:52:14;;;;;;;55.58;36.45;;;;;;;;;;5038845;28;20040;-71
2022/03/08 08:54:40;;;;;;;59.20;38.22;;;;;;;;;;5040398;28;20039;-71
2022/03/08 08:57:06;;;;;;;56.58;36.42;;;;;;;;;;5042368;28;20037;-71
2022/03/08 08:59:32;;;;;;;65.53;39.17;;;;;;;;;;5044593;28;20391;-71
2022/03/08 09:01:58;;;;;;;55.47;37.67;;;;;;;;;;5034899;28;20046;-71
2022/03/08 09:04:24;;;;;;;55.17;35.15;;;;;;;;;;5037081;28;20411;-71
2022/03/08 09:06:50;;;;;;;54.83;36.40;;;;;;;;;;5039235;28;20409;-71
2022/03/08 09:09:16;;;;;;;53.25;36.05;;;;;;;;;;5034229;28;20108;-71
2022/03/08 09:11:45;;;;;;;55.67;35.75;;;;;;;;;;5037315;28;20037;-72
2022/03/08 09:14:11;;;;;;;52.80;35.28;;;;;;;;;;5035594;28;20029;-71
2022/03/08 09:16:37;;;;;;;54.10;33.83;;;;;;;;;;5039489;28;20080;-71
2022/03/08 09:19:03;;;;;;;54.72;34.10;;;;;;;;;;5035613;28;20082;-71
2022/03/08 09:21:29;;;;;;;48.08;32.45;;;;;;;;;;5031785;28;20080;-71
2022/03/08 09:23:55;;;;;;;55.30;33.40;;;;;;;;;;5036682;28;20064;-71
2022/03/08 09:26:21;;;;;;;52.33;34.35;;;;;;;;;;5041610;28;20082;-71
2022/03/08 09:28:47;;;;;;;49.17;31.75;;;;;;;;;;5038895;28;20044;-71
2022/03/08 09:31:13;;;;;;;51.17;33.45;;;;;;;;;;5038324;28;20052;-71
2022/03/08 09:33:40;;;;;;;51.25;35.05;;;;;;;;;;5040286;28;20391;-71
2022/03/08 09:36:06;;;;;;;62.70;37.85;;;;;;;;;;5035310;28;20027;-71
2022/03/08 09:38:32;;;;;;;69.95;38.95;;;;;;;;;;5047519;28;20033;-71
2022/03/08 09:40:58;;;;;;;58.08;38.25;;;;;;;;;;5045739;28;20103;-71
2022/03/08 09:43:24;;;;;;;56.53;36.47;;;;;;;;;;5037182;28;20037;-71
2022/03/08 09:45:50;;;;;;;54.30;34.83;;;;;;;;;;5036658;28;20029;-71
2022/03/08 09:48:18;;;;;;;59.00;38.78;;;;;;;;;;5039664;28;20491;-71
2022/03/08 09:50:44;;;;;;;57.42;37.10;;;;;;;;;;5035493;28;20527;-71
2022/03/08 09:53:12;;;;;;;56.72;39.42;;;;;;;;;;5046767;28;20041;-71
2022/03/08 09:55:38;;;;;;;52.50;34.88;;;;;;;;;;5034112;28;20407;-71
2022/03/08 09:58:05;;;;;;;55.33;35.67;;;;;;;;;;5041219;28;20032;-71
2022/03/08 10:00:32;;;;;;;48.65;33.70;;;;;;;;;;5035669;28;20472;-72
2022/03/08 10:02:59;;;;;;;51.95;34.40;;;;;;;;;;5044788;28;20475;-71
2022/03/08 10:05:39;;;;;;;49.90;33.83;;;;;;;;;;5034330;28;20036;-71
2022/03/08 10:08:13;;;;;;;49.92;32.78;;;;;;;;;;5033258;28;20042;-71
2022/03/08 10:10:46;;;;;;;55.15;34.83;;;;;;;;;;5036188;28;20036;-71
2022/03/08 10:13:13;;;;;;;48.08;32.17;;;;;;;;;;5038098;28;20051;-71
2022/03/08 10:15:39;;;;;;;51.45;33.28;;;;;;;;;;5042699;28;20033;-71
2022/03/08 10:18:05;;;;;;;47.42;31.05;;;;;;;;;;5033513;28;20150;-71
2022/03/08 10:20:32;;;;;;;45.53;29.95;;;;;;;;;;5036709;28;20517;-72
2022/03/08 10:22:59;;;;;;;47.90;31.30;;;;;;;;;;5017747;28;20060;-71
2022/03/08 10:25:27;;;;;;;52.88;30.83;;;;;;;;;;5012341;28;20105;-71
2022/03/08 10:27:52;;;;;;;52.28;33.10;;;;;;;;;;5021062;28;20045;-71
2022/03/08 10:30:19;;;;;;;50.13;33.22;;;;;;;;;;5024772;28;20092;-72
2022/03/08 10:32:46;;;;;;;55.67;32.40;;;;;;;;;;5018025;28;20052;-71
2022/03/08 10:35:21;;;;;;;51.60;33.72;;;;;;;;;;5024561;28;20030;-71
2022/03/08 10:37:47;;;;;;;49.85;32.00;;;;;;;;;;5020805;28;20060;-71
2022/03/08 10:40:21;;;;;;;52.63;32.90;;;;;;;;;;5023004;28;20065;-71
2022/03/08 10:42:57;;;;;;;52.40;31.88;;;;;;;;;;5021571;28;20045;-71
2022/03/08 10:45:26;;;;;;;47.55;31.42;;;;;;;;;;5012516;28;20025;-71
2022/03/08 10:47:53;;;;;;;48.08;30.98;;;;;;;;;;5016017;28;20029;-71
2022/03/08 10:50:20;;;;;;;48.58;33.30;;;;;;;;;;5015452;28;20061;-71
2022/03/08 10:52:48;;;;;;;41.83;29.48;;;;;;;;;;5016800;28;20108;-71
2022/03/08 10:55:20;;;;;;;44.45;31.60;;;;;;;;;;5015459;28;20503;-71
2022/03/08 10:57:50;;;;;;;45.38;32.33;;;;;;;;;;5016974;28;20404;-71
2022/03/08 11:00:16;;;;;;;47.05;30.30;;;;;;;;;;5016207;28;20030;-71
2022/03/08 11:02:55;;;;;;;45.60;30.65;;;;;;;;;;5014243;28;20136;-71
2022/03/08 11:05:22;;;;;;;41.15;28.38;;;;;;;;;;5018332;28;20034;-71
2022/03/08 11:07:49;;;;;;;43.40;29.25;;;;;;;;;;5014952;28;20583;-71
2022/03/08 11:10:15;;;;;;;45.63;30.90;;;;;;;;;;5014868;28;20056;-71
2022/03/08 11:12:42;;;;;;;44.00;29.15;;;;;;;;;;5019685;28;20249;-71
2022/03/08 11:15:09;;;;;;;47.35;29.73;;;;;;;;;;5014524;28;20034;-72
2022/03/08 11:17:36;;;;;;;43.20;29.52;;;;;;;;;;5016258;28;20053;-71
2022/03/08 11:20:03;;;;;;;42.97;29.55;;;;;;;;;;5018309;28;20017;-71
2022/03/08 11:22:30;;;;;;;47.78;29.73;;;;;;;;;;5027184;28;20094;-71
2022/03/08 11:24:58;;;;;;;48.70;29.23;;;;;;;;;;5041190;28;20083;-72
2022/03/08 11:27:24;;;;;;;38.60;26.83;;;;;;;;;;5034157;28;20044;-71
2022/03/08 11:29:50;;;;;;;43.13;28.83;;;;;;;;;;5035973;28;20033;-71
2022/03/08 11:32:22;;;;;;;46.80;28.45;;;;;;;;;;5040650;28;20037;-71
2022/03/08 11:34:54;;;;;;;40.95;29.30;;;;;;;;;;5040541;28;20040;-71
2022/03/08 11:37:21;;;;;;;42.70;30.10;;;;;;;;;;5036091;28;20037;-71
2022/03/08 11:40:06;;;;;;;42.72;28.50;;;;;;;;;;5036652;28;20033;-72
2022/03/08 11:42:34;;;;;;;39.15;26.17;;;;;;;;;;5036916;28;20056;-72
2022/03/08 11:45:02;;;;;;;44.92;31.10;;;;;;;;;;5035500;28;20025;-71
2022/03/08 11:47:37;;;;;;;38.88;27.55;;;;;;;;;;5037602;28;20033;-71
2022/03/08 11:50:04;;;;;;;43.70;28.75;;;;;;;;;;5033702;28;20075;-71
2022/03/08 11:52:32;;;;;;;38.40;26.55;;;;;;;;;;5031759;28;20082;-71
2022/03/08 11:55:02;;;;;;;42.13;25.90;;;;;;;;;;5037558;28;20030;-71
2022/03/08 11:57:47;;;;;;;43.28;26.98;;;;;;;;;;5033875;28;20029;-72
2022/03/08 12:00:16;;;;;;;45.08;30.25;;;;;;;;;;5036073;28;20065;-71
2022/03/08 12:02:46;;;;;;;44.58;28.73;;;;;;;;;;5036521;28;20047;-71
2022/03/08 12:05:31;;;;;;;38.17;24.98;;;;;;;;;;5035448;28;20391;-71
2022/03/08 12:07:57;;;;;;;39.45;24.90;;;;;;;;;;5035397;28;20036;-71
2022/03/08 12:10:26;;;;;;;37.17;25.65;;;;;;;;;;5033467;28;20037;-71
2022/03/08 12:12:54;;;;;;;41.00;23.48;;;;;;;;;;5033875;28;20718;-72
2022/03/08 12:15:20;;;;;;;36.90;22.85;;;;;;;;;;5036199;28;20029;-71
2022/03/08 12:18:05;;;;;;;39.40;24.58;;;;;;;;;;5039388;28;20035;-71
2022/03/08 12:20:31;;;;;;;41.88;26.00;;;;;;;;;;5042545;28;20087;-72
2022/03/08 12:23:10;;;;;;;39.22;25.98;;;;;;;;;;5031784;28;20810;-72
2022/03/08 12:25:36;;;;;;;39.92;25.58;;;;;;;;;;5014570;28;20064;-71
2022/03/08 12:28:02;;;;;;;40.97;25.73;;;;;;;;;;5022950;28;20033;-71
2022/03/08 12:30:38;;;;;;;42.67;25.70;;;;;;;;;;5022475;28;20046;-71
2022/03/08 12:33:04;;;;;;;42.88;31.00;;;;;;;;;;5023793;28;20072;-71
2022/03/08 12:35:30;;;;;;;41.78;29.98;;;;;;;;;;5019467;28;20034;-71
2022/03/08 12:38:05;;;;;;;46.65;32.70;;;;;;;;;;5021480;28;20035;-71
2022/03/08 12:40:31;;;;;;;48.25;34.38;;;;;;;;;;5019506;28;20151;-71
2022/03/08 12:43:00;;;;;;;45.10;32.88;;;;;;;;;;5015019;28;20033;-71
2022/03/08 12:45:33;;;;;;;44.42;32.13;;;;;;;;;;5014809;28;20070;-71
2022/03/08 12:48:07;;;;;;;45.20;31.67;;;;;;;;;;5013788;28;20059;-71
2022/03/08 12:50:38;;;;;;;45.63;30.67;;;;;;;;;;5019609;28;20041;-71
2022/03/08 12:53:05;;;;;;;49.35;28.65;;;;;;;;;;5021879;28;20554;-71
2022/03/08 12:55:33;;;;;;;44.22;30.17;;;;;;;;;;5020457;28;20038;-71
2022/03/08 12:58:01;;;;;;;39.20;27.23;;;;;;;;;;5017886;28;20380;-71
2022/03/08 13:00:30;;;;;;;44.85;26.92;;;;;;;;;;5013781;28;20034;-71
2022/03/08 13:02:56;;;;;;;45.38;27.00;;;;;;;;;;5018179;28;20029;-71
2022/03/08 13:05:26;;;;;;;47.75;28.70;;;;;;;;;;5020760;28;20064;-71
2022/03/08 13:07:53;;;;;;;46.83;28.67;;;;;;;;;;5016392;28;20034;-71
2022/03/08 13:10:20;;;;;;;41.53;28.38;;;;;;;;;;5016642;28;20053;-71
2022/03/08 13:13:05;;;;;;;43.45;28.10;;;;;;;;;;5018767;28;20033;-71
2022/03/08 13:15:31;;;;;;;45.80;27.70;;;;;;;;;;5014910;28;20030;-71
2022/03/08 13:17:58;;;;;;;42.72;27.25;;;;;;;;;;5018876;28;20115;-71
2022/03/08 13:20:33;;;;;;;39.13;26.40;;;;;;;;;;5020692;28;20121;-71
2022/03/08 13:23:01;;;;;;;38.83;25.70;;;;;;;;;;5031356;28;20057;-71
2022/03/08 13:25:27;;;;;;;39.50;27.55;;;;;;;;;;5037927;28;20042;-71
2022/03/08 13:27:56;;;;;;;40.55;25.95;;;;;;;;;;5036475;28;20071;-71
2022/03/08 13:30:24;;;;;;;38.13;24.10;;;;;;;;;;5036551;28;20033;-71
2022/03/08 13:33:09;;;;;;;38.97;25.15;;;;;;;;;;5044923;28;20032;-71
2022/03/08 13:35:36;;;;;;;44.22;27.55;;;;;;;;;;5038596;28;20033;-71
2022/03/08 13:38:03;;;;;;;44.97;24.88;;;;;;;;;;5037288;28;20025;-71
2022/03/08 13:40:31;;;;;;;40.25;26.30;;;;;;;;;;5034090;28;20041;-71
2022/03/08 13:42:57;;;;;;;40.05;29.75;;;;;;;;;;5035245;28;20437;-71
2022/03/08 13:45:23;;;;;;;41.90;29.67;;;;;;;;;;5037611;28;20125;-70
2022/03/08 13:47:52;;;;;;;44.47;30.73;;;;;;;;;;5035024;28;20043;-71
2022/03/08 13:50:19;;;;;;;42.70;28.85;;;;;;;;;;5033296;28;20132;-71
2022/03/08 13:52:52;;;;;;;45.28;28.30;;;;;;;;;;5037933;28;20383;-71
2022/03/08 13:55:19;;;;;;;41.17;30.23;;;;;;;;;;5035724;28;20303;-71
2022/03/08 13:57:55;;;;;;;40.55;28.05;;;;;;;;;;5038974;28;20036;-71
2022/03/08 14:00:21;;;;;;;51.03;29.33;;;;;;;;;;5035451;28;20045;-70
2022/03/08 14:02:54;;;;;;;41.05;29.25;;;;;;;;;;5035629;28;20925;-71
2022/03/08 14:05:20;;;;;;;45.88;31.15;;;;;;;;;;5034132;28;20060;-71
2022/03/08 14:07:59;;;;;;;44.38;33.25;;;;;;;;;;5036271;28;20064;-71
2022/03/08 14:10:26;;;;;;;43.78;31.73;;;;;;;;;;5032653;28;20076;-70
2022/03/08 14:12:52;;;;;;;48.50;33.28;;;;;;;;;;5040323;28;20029;-71
2022/03/08 14:15:19;;;;;;;47.15;32.28;;;;;;;;;;5031934;28;20041;-71